Time;durP1;ratioP1;P1;durP2;ratioP2;P2;SDS_P1;SDS_P2;PMS_P1;PMS_P2;Temp;Humidity;BMP_temperature;BMP_pressure;BME280_temperature;BME280_humidity;BME280_pressure;Samples;Min_cycle;Max_cycle;Signal;HPM_P1;HPM_P2
2021/05/12 04:17:26;;;;;;;12.13;8.40;;;;;;;10.49;97.05;98354.25;5010389;23;20112;-75
2021/05/12 04:19:53;;;;;;;13.43;8.60;;;;;;;10.52;97.68;98359.34;4917452;29;20486;-73
2021/05/12 04:22:18;;;;;;;11.98;8.85;;;;;;;10.61;96.75;98354.84;4917567;29;20020;-74
2021/05/12 04:24:44;;;;;;;19.85;10.13;;;;;;;10.51;97.98;98355.06;4917567;29;20051;-71
2021/05/12 04:27:11;;;;;;;17.85;10.48;;;;;;;10.48;96.92;98354.28;4917272;29;20032;-72
2021/05/12 04:29:36;;;;;;;12.98;9.60;;;;;;;10.61;96.82;98354.84;4931436;23;20516;-72
2021/05/12 04:32:03;;;;;;;19.38;10.18;;;;;;;10.53;97.25;98358.44;4916500;29;20056;-72
2021/05/12 04:34:29;;;;;;;22.88;11.00;;;;;;;10.63;96.53;98358.22;4917048;29;20042;-72
2021/05/12 04:36:54;;;;;;;17.90;10.02;;;;;;;10.62;97.33;98362.56;4900186;29;20549;-71
2021/05/12 04:39:19;;;;;;;21.02;10.90;;;;;;;10.68;97.42;98361.56;4917230;29;20032;-71
2021/05/12 04:41:45;;;;;;;17.77;11.00;;;;;;;10.71;96.79;98367.50;4917153;29;20020;-71
2021/05/12 04:44:10;;;;;;;17.42;9.77;;;;;;;10.61;95.85;98370.38;4917174;29;20028;-71
2021/05/12 04:46:36;;;;;;;15.18;9.80;;;;;;;10.73;95.83;98370.06;4916729;29;20039;-71
2021/05/12 04:49:05;;;;;;;19.05;11.00;;;;;;;10.66;96.26;98365.94;4881148;29;20044;-71
2021/05/12 04:51:33;;;;;;;18.85;11.00;;;;;;;10.52;96.72;98372.28;4916838;29;20115;-71
2021/05/12 04:53:58;;;;;;;18.55;10.45;;;;;;;10.55;96.70;98373.97;4915833;29;20042;-72
2021/05/12 04:56:24;;;;;;;14.13;10.48;;;;;;;10.58;96.69;98381.66;4916301;29;20052;-72
2021/05/12 04:58:49;;;;;;;14.00;10.98;;;;;;;10.48;97.73;98386.22;4916820;29;20103;-71
2021/05/12 05:01:15;;;;;;;22.85;11.15;;;;;;;10.63;96.61;98390.16;4916528;29;20047;-71
2021/05/12 05:03:42;;;;;;;18.15;10.85;;;;;;;10.66;96.43;98389.25;4916865;29;20039;-71
2021/05/12 05:06:08;;;;;;;18.88;11.63;;;;;;;10.60;97.51;98392.84;4916534;29;20497;-72
2021/05/12 05:08:34;;;;;;;18.95;11.52;;;;;;;10.56;96.80;98391.22;4916645;29;20402;-71
2021/05/12 05:10:59;;;;;;;18.30;11.55;;;;;;;10.73;96.79;98393.38;4916498;29;20024;-72
2021/05/12 05:13:24;;;;;;;22.02;11.57;;;;;;;10.71;97.00;98398.59;4916578;29;20482;-71
2021/05/12 05:15:50;;;;;;;16.77;11.27;;;;;;;10.75;97.16;98404.56;4916271;29;20035;-72
2021/05/12 05:18:16;;;;;;;25.33;12.65;;;;;;;10.73;97.33;98403.75;4916454;29;20028;-71
2021/05/12 05:20:41;;;;;;;18.98;11.75;;;;;;;10.57;98.32;98411.03;4916349;29;20386;-69
2021/05/12 05:23:07;;;;;;;21.13;11.77;;;;;;;10.66;98.01;98407.38;4916320;29;20039;-69
2021/05/12 05:25:32;;;;;;;19.00;11.43;;;;;;;10.75;97.47;98407.16;4916340;29;20032;-69
2021/05/12 05:27:58;;;;;;;16.92;9.90;;;;;;;10.86;96.17;98412.94;4916170;29;20460;-69
2021/05/12 05:30:23;;;;;;;16.83;10.23;;;;;;;10.72;96.24;98410.66;4916115;29;20110;-69
2021/05/12 05:32:48;;;;;;;13.45;10.48;;;;;;;10.66;95.74;98413.41;4916038;29;20028;-69
2021/05/12 05:35:14;;;;;;;16.85;9.32;;;;;;;10.67;95.86;98411.69;4916190;29;20072;-69
2021/05/12 05:37:39;;;;;;;19.30;9.82;;;;;;;10.65;96.32;98413.47;4916222;29;20086;-69
2021/05/12 05:40:05;;;;;;;12.85;9.10;;;;;;;10.71;95.62;98418.50;4916133;29;20056;-69
2021/05/12 05:42:30;;;;;;;17.33;9.68;;;;;;;10.77;96.07;98419.19;4916056;29;20439;-69
2021/05/12 05:44:56;;;;;;;16.90;9.73;;;;;;;10.70;95.77;98416.78;4916006;29;20028;-69
2021/05/12 05:47:22;;;;;;;12.32;8.30;;;;;;;10.75;96.47;98414.94;4915748;29;20467;-69
2021/05/12 05:49:47;;;;;;;15.43;9.50;;;;;;;10.80;96.13;98407.91;4916129;29;20028;-72
2021/05/12 05:52:13;;;;;;;12.75;8.70;;;;;;;10.63;96.96;98412.63;4915889;29;20040;-72
2021/05/12 05:54:38;;;;;;;21.00;9.15;;;;;;;10.61;96.85;98422.19;4915939;29;20401;-72
2021/05/12 05:57:05;;;;;;;13.68;8.55;;;;;;;10.65;95.30;98418.66;4915661;29;20032;-72
2021/05/12 05:59:31;;;;;;;12.98;7.38;;;;;;;10.65;93.67;98414.31;4915330;29;20028;-72
2021/05/12 06:01:57;;;;;;;14.45;6.85;;;;;;;10.69;94.00;98422.88;4915822;29;20051;-72
2021/05/12 06:04:24;;;;;;;12.20;6.70;;;;;;;10.55;93.78;98418.88;4915944;29;20152;-71
2021/05/12 06:06:51;;;;;;;9.13;6.53;;;;;;;10.47;94.19;98425.09;4913969;29;20140;-71
2021/05/12 06:09:16;;;;;;;14.40;7.07;;;;;;;10.41;94.69;98426.09;4907935;29;20035;-71
2021/05/12 06:11:41;;;;;;;12.77;8.07;;;;;;;10.58;94.82;98428.28;4915218;29;20021;-69
2021/05/12 06:14:07;;;;;;;13.15;7.13;;;;;;;10.60;95.31;98430.84;4915622;29;20060;-69
2021/05/12 06:16:32;;;;;;;14.23;9.82;;;;;;;10.52;95.17;98431.03;4914832;29;20027;-69
2021/05/12 06:18:57;;;;;;;12.82;7.43;;;;;;;10.78;94.40;98430.41;4914992;29;20110;-69
2021/05/12 06:21:25;;;;;;;15.70;7.60;;;;;;;10.80;94.14;98434.66;4914780;29;20080;-69
2021/05/12 06:23:50;;;;;;;14.80;7.70;;;;;;;10.67;95.70;98432.41;4915247;29;20024;-69
2021/05/12 06:26:17;;;;;;;12.65;7.93;;;;;;;10.72;93.87;98435.72;4915386;29;20034;-69
2021/05/12 06:28:43;;;;;;;16.77;8.35;;;;;;;10.67;95.18;98437.59;4914454;29;20478;-69
2021/05/12 06:31:10;;;;;;;12.93;7.50;;;;;;;10.62;95.35;98439.44;4915088;29;20039;-69
2021/05/12 06:33:38;;;;;;;13.40;7.38;;;;;;;10.90;94.83;98440.47;4914500;29;20024;-69
2021/05/12 06:36:04;;;;;;;10.48;7.47;;;;;;;10.86;95.10;98444.03;4915541;29;20417;-69
2021/05/12 06:38:30;;;;;;;10.38;6.43;;;;;;;10.87;92.63;98437.09;4915434;29;20028;-69
2021/05/12 06:40:55;;;;;;;9.32;5.75;;;;;;;10.66;92.75;98435.88;4897186;29;20505;-69
2021/05/12 06:43:21;;;;;;;12.95;6.38;;;;;;;10.80;92.32;98436.41;4915389;29;20071;-69
2021/05/12 06:45:47;;;;;;;12.70;7.35;;;;;;;10.78;93.08;98435.56;4915262;29;20072;-69
2021/05/12 06:48:12;;;;;;;17.17;13.35;;;;;;;10.80;92.59;98441.59;4915201;29;20088;-69
2021/05/12 06:50:38;;;;;;;13.05;9.23;;;;;;;10.91;91.77;98436.97;4915177;29;20028;-69
2021/05/12 06:53:03;;;;;;;10.57;8.30;;;;;;;10.92;90.99;98440.44;4914280;29;20044;-69
2021/05/12 06:55:28;;;;;;;12.15;6.97;;;;;;;10.87;90.82;98440.53;4914685;29;20028;-69
2021/05/12 06:57:54;;;;;;;12.98;7.00;;;;;;;10.89;91.15;98443.97;4914970;29;20032;-69
2021/05/12 07:00:20;;;;;;;9.07;6.30;;;;;;;10.92;91.20;98449.06;4915113;29;20083;-69
2021/05/12 07:02:46;;;;;;;10.63;6.13;;;;;;;10.89;91.13;98449.16;4914428;29;20075;-69
2021/05/12 07:05:15;;;;;;;13.18;6.05;;;;;;;10.97;90.48;98447.19;4914493;29;20039;-69
2021/05/12 07:07:43;;;;;;;7.85;5.50;;;;;;;10.95;89.37;98454.16;4914598;29;20016;-69
2021/05/12 07:10:10;;;;;;;11.27;5.35;;;;;;;11.01;90.38;98459.19;4914500;29;20128;-69
2021/05/12 07:12:35;;;;;;;7.32;5.40;;;;;;;11.04;90.09;98459.13;4917816;29;20036;-69
2021/05/12 07:15:03;;;;;;;12.55;5.55;;;;;;;11.10;89.49;98457.28;4917677;29;20035;-69
2021/05/12 07:17:29;;;;;;;5.65;5.10;;;;;;;11.08;89.64;98454.72;4918058;29;20028;-69
2021/05/12 07:19:55;;;;;;;8.50;5.38;;;;;;;11.13;90.65;98452.03;4918258;29;20363;-69
2021/05/12 07:22:20;;;;;;;8.73;6.25;;;;;;;11.22;89.10;98452.63;4918474;29;20028;-69
2021/05/12 07:24:45;;;;;;;7.07;5.20;;;;;;;11.24;90.46;98450.00;4918285;29;20023;-69
2021/05/12 07:27:11;;;;;;;12.27;5.57;;;;;;;11.17;88.14;98444.13;4917207;29;20114;-69
2021/05/12 07:29:37;;;;;;;10.85;5.43;;;;;;;10.97;87.42;98444.59;4917955;29;20028;-69
2021/05/12 07:32:02;;;;;;;11.82;6.25;;;;;;;11.01;89.12;98451.41;4918274;29;20036;-69
2021/05/12 07:34:27;;;;;;;7.47;5.20;;;;;;;10.99;88.69;98444.59;4918191;29;20028;-69
2021/05/12 07:36:53;;;;;;;7.35;4.55;;;;;;;10.99;88.32;98440.25;4917968;29;20039;-69
2021/05/12 07:39:19;;;;;;;6.60;4.07;;;;;;;10.94;88.60;98431.75;4917062;29;20050;-69
2021/05/12 07:41:45;;;;;;;8.13;4.00;;;;;;;11.02;87.52;98429.81;4917981;29;20418;-69
2021/05/12 07:44:10;;;;;;;5.32;3.38;;;;;;;11.03;87.97;98423.72;4918016;29;20024;-69
2021/05/12 07:46:35;;;;;;;4.82;3.53;;;;;;;11.04;87.28;98430.59;4917789;29;20028;-69
2021/05/12 07:49:01;;;;;;;9.65;3.55;;;;;;;11.02;87.84;98423.75;4917736;29;20036;-69
2021/05/12 07:51:26;;;;;;;7.25;3.78;;;;;;;11.13;87.48;98426.09;4916789;29;20039;-69
2021/05/12 07:53:53;;;;;;;10.05;3.30;;;;;;;11.08;86.77;98426.22;4917717;29;20386;-69
2021/05/12 07:56:18;;;;;;;6.75;4.00;;;;;;;11.09;87.24;98429.66;4929036;29;20027;-69
2021/05/12 07:58:44;;;;;;;6.53;3.90;;;;;;;11.20;87.08;98430.22;4936362;29;20609;-69
2021/05/12 08:01:26;;;;;;;8.13;4.22;;;;;;;11.15;88.84;98426.88;4935277;29;20027;-70
2021/05/12 08:03:51;;;;;;;12.05;7.10;;;;;;;11.17;87.21;98433.75;4936040;29;20034;-69
2021/05/12 08:06:16;;;;;;;15.73;7.10;;;;;;;11.04;87.05;98443.56;4924172;29;20024;-69
2021/05/12 08:08:43;;;;;;;5.75;3.85;;;;;;;10.95;86.87;98441.22;4917395;29;20047;-69
2021/05/12 08:11:08;;;;;;;9.20;5.43;;;;;;;10.86;87.95;98433.66;4919104;29;20043;-69
2021/05/12 08:13:34;;;;;;;25.98;10.52;;;;;;;10.87;87.49;98439.69;4926189;29;20433;-69
2021/05/12 08:16:00;;;;;;;13.00;5.68;;;;;;;10.83;87.65;98431.16;4925436;29;20043;-69
2021/05/12 08:18:25;;;;;;;20.60;8.18;;;;;;;10.74;88.85;98444.34;4917338;29;20024;-69
2021/05/12 08:20:56;;;;;;;37.70;12.35;;;;;;;10.90;89.67;98435.28;4916210;29;20084;-69
2021/05/12 08:23:22;;;;;;;11.70;5.68;;;;;;;10.94;87.64;98442.09;4914704;29;20089;-69
2021/05/12 08:25:48;;;;;;;37.72;12.82;;;;;;;10.79;89.03;98442.50;4935205;29;20034;-69
2021/05/12 08:28:14;;;;;;;16.95;6.07;;;;;;;10.99;88.41;98442.84;4936207;29;20031;-69
2021/05/12 08:30:45;;;;;;;47.28;13.73;;;;;;;10.82;89.97;98447.56;4936064;29;20023;-69
2021/05/12 08:33:11;;;;;;;74.13;24.00;;;;;;;11.07;88.52;98443.50;4936144;29;20449;-69
2021/05/12 08:35:40;;;;;;;16.67;7.25;;;;;;;10.82;89.44;98442.41;4935781;29;20024;-69
2021/05/12 08:38:05;;;;;;;43.60;14.20;;;;;;;10.86;89.03;98438.84;4935147;29;20028;-69
2021/05/12 08:40:32;;;;;;;19.67;10.68;;;;;;;11.15;87.87;98435.50;4936050;29;20389;-69
2021/05/12 08:42:58;;;;;;;8.40;5.40;;;;;;;11.15;87.22;98440.69;4936013;29;20029;-69
2021/05/12 08:45:24;;;;;;;24.05;12.93;;;;;;;11.25;87.93;98430.94;4936083;29;20023;-69
2021/05/12 08:47:54;;;;;;;26.83;10.98;;;;;;;11.15;86.88;98437.25;4931236;29;20024;-69
2021/05/12 08:50:20;;;;;;;14.00;5.38;;;;;;;11.11;85.67;98433.03;4920246;29;20104;-69
2021/05/12 08:52:48;;;;;;;10.20;4.03;;;;;;;11.18;85.72;98435.44;4916595;29;20497;-69
2021/05/12 08:55:14;;;;;;;7.70;4.10;;;;;;;11.00;86.47;98434.16;4905501;29;20410;-69
2021/05/12 08:57:39;;;;;;;12.65;5.50;;;;;;;11.28;87.54;98436.06;4870731;29;20044;-69
2021/05/12 09:00:06;;;;;;;7.65;3.80;;;;;;;11.31;86.73;98430.78;4902644;29;20055;-69
2021/05/12 09:02:32;;;;;;;8.38;5.05;;;;;;;11.51;85.46;98433.69;4908009;29;20115;-69
2021/05/12 09:04:57;;;;;;;9.40;4.82;;;;;;;11.43;85.59;98430.47;4903225;29;20493;-69
2021/05/12 09:07:23;;;;;;;18.02;4.60;;;;;;;11.45;86.19;98436.44;4902163;29;20028;-69
2021/05/12 09:09:50;;;;;;;7.63;3.65;;;;;;;11.49;84.78;98430.28;4907684;29;20036;-69
2021/05/12 09:12:16;;;;;;;8.32;4.00;;;;;;;11.61;83.70;98425.66;4904278;29;20032;-69
2021/05/12 09:14:42;;;;;;;12.38;5.40;;;;;;;11.82;84.67;98435.47;4903219;29;20036;-69
2021/05/12 09:17:07;;;;;;;6.63;4.00;;;;;;;11.76;83.08;98427.81;4902587;29;20032;-69
2021/05/12 09:19:34;;;;;;;12.98;6.38;;;;;;;11.95;83.64;98421.25;4907341;29;20040;-69
2021/05/12 09:22:01;;;;;;;8.07;4.10;;;;;;;11.57;85.24;98428.34;4904748;29;20036;-69
2021/05/12 09:24:42;;;;;;;7.40;3.95;;;;;;;11.68;83.02;98424.59;4901010;29;20035;-69
2021/05/12 09:27:17;;;;;;;8.52;4.07;;;;;;;11.57;83.20;98428.34;4902231;29;20514;-69
2021/05/12 09:29:45;;;;;;;5.28;3.92;;;;;;;11.46;84.10;98425.19;4907500;29;20044;-69
2021/05/12 09:32:18;;;;;;;6.95;3.63;;;;;;;11.42;83.21;98431.34;4907555;29;20032;-69
2021/05/12 09:35:00;;;;;;;7.15;5.10;;;;;;;11.54;84.33;98433.59;4899585;29;20111;-69
2021/05/12 09:37:37;;;;;;;12.40;6.20;;;;;;;11.55;84.65;98430.09;4898817;29;20050;-69
2021/05/12 09:40:13;;;;;;;12.98;3.38;;;;;;;11.65;84.15;98429.84;4898782;29;20055;-69
2021/05/12 09:42:40;;;;;;;8.25;3.53;;;;;;;11.44;84.11;98437.34;4901873;29;20036;-70
2021/05/12 09:45:19;;;;;;;7.03;3.85;;;;;;;11.33;84.80;98439.38;4905878;29;21304;-70
2021/05/12 09:47:47;;;;;;;5.78;3.70;;;;;;;11.21;84.22;98439.69;4904422;29;20055;-69
2021/05/12 09:50:30;;;;;;;6.45;4.47;;;;;;;11.22;84.80;98433.63;4900772;29;20032;-69
2021/05/12 09:53:11;;;;;;;5.68;4.03;;;;;;;11.24;85.80;98443.06;4901134;29;20032;-69
2021/05/12 09:55:47;;;;;;;9.63;4.53;;;;;;;11.16;86.15;98436.38;4887415;29;20088;-69
2021/05/12 09:58:14;;;;;;;9.00;4.03;;;;;;;11.04;86.28;98440.13;4906170;29;20473;-68
2021/05/12 10:00:40;;;;;;;18.65;6.10;;;;;;;10.92;87.05;98438.69;4902938;29;20036;-70
2021/05/12 10:03:09;;;;;;;5.05;4.55;;;;;;;10.90;89.23;98430.09;4903315;29;20028;-68
2021/05/12 10:06:04;;;;;;;11.48;3.95;;;;;;;10.47;89.98;98430.28;4906272;29;20404;-68
2021/05/12 10:08:32;;;;;;;10.35;4.57;;;;;;;10.76;89.86;98427.00;4903770;29;20028;-68
2021/05/12 10:11:02;;;;;;;8.35;4.80;;;;;;;10.94;90.53;98430.88;4901237;29;20441;-68
2021/05/12 10:13:29;;;;;;;9.18;4.50;;;;;;;10.99;88.26;98427.28;4901328;29;20485;-69
2021/05/12 10:15:56;;;;;;;11.50;6.28;;;;;;;11.26;88.94;98427.44;4905955;29;20056;-68
2021/05/12 10:18:21;;;;;;;8.80;5.25;;;;;;;10.96;88.72;98429.94;4906372;29;20032;-68
2021/05/12 10:20:47;;;;;;;14.25;8.23;;;;;;;10.98;88.67;98423.00;4902022;29;20051;-68
2021/05/12 10:23:12;;;;;;;9.43;5.28;;;;;;;11.15;87.33;98426.88;4900890;29;20446;-68
2021/05/12 10:25:38;;;;;;;7.45;4.65;;;;;;;11.48;87.64;98417.38;4899297;29;20154;-68
2021/05/12 10:28:05;;;;;;;6.65;4.43;;;;;;;11.32;87.59;98427.31;4905384;29;20485;-68
2021/05/12 10:30:30;;;;;;;10.77;4.35;;;;;;;11.49;85.55;98427.69;4900950;29;20064;-68
2021/05/12 10:32:58;;;;;;;6.88;4.05;;;;;;;11.56;84.74;98426.66;4900737;29;20028;-68
2021/05/12 10:35:35;;;;;;;5.30;3.72;;;;;;;11.55;85.01;98414.53;4900344;29;20028;-68
2021/05/12 10:38:02;;;;;;;7.28;4.00;;;;;;;11.64;86.26;98417.78;4905887;29;20095;-69
2021/05/12 10:40:34;;;;;;;7.47;4.05;;;;;;;12.13;83.83;98413.78;4902694;29;20473;-70
2021/05/12 10:45:57;;;;;;;8.77;3.70;;;;;;;11.63;84.39;98416.09;4900580;29;20036;-70
2021/05/12 10:48:29;;;;;;;6.30;3.85;;;;;;;11.80;84.44;98416.47;4909570;29;20119;-70
2021/05/12 10:50:55;;;;;;;6.40;4.10;;;;;;;11.63;82.29;98421.28;4905493;29;20089;-70
2021/05/12 10:53:24;;;;;;;7.80;3.35;;;;;;;11.92;84.06;98413.53;4904157;29;20418;-68
2021/05/12 10:55:56;;;;;;;5.95;3.78;;;;;;;12.09;83.88;98406.09;4904119;29;20052;-68
2021/05/12 10:58:23;;;;;;;6.18;3.42;;;;;;;12.17;81.91;98402.41;4887692;29;20753;-68
2021/05/12 11:00:56;;;;;;;6.75;3.83;;;;;;;12.36;80.40;98395.75;4907407;29;20032;-68
2021/05/12 11:03:22;;;;;;;8.95;3.80;;;;;;;12.36;81.94;98398.34;4888816;29;20048;-68
2021/05/12 11:05:56;;;;;;;4.60;3.72;;;;;;;12.92;81.91;98392.22;4907112;29;20119;-68
2021/05/12 11:08:23;;;;;;;7.20;3.90;;;;;;;13.23;79.08;98387.69;4907487;29;20036;-68
2021/05/12 11:10:52;;;;;;;5.18;3.35;;;;;;;12.92;78.25;98393.06;4908553;29;20490;-68
2021/05/12 11:13:22;;;;;;;;;;;;;;;12.83;78.47;98395.97;4904562;29;20040;-68
2021/05/12 11:15:53;;;;;;;10.77;4.22;;;;;;;13.26;79.00;98386.75;4901849;29;19945;-68
2021/05/12 11:18:51;;;;;;;6.90;3.70;;;;;;;13.06;78.64;98388.25;4905301;29;20042;-68
2021/05/12 11:21:16;;;;;;;7.43;4.15;;;;;;;13.13;77.70;98381.94;4882961;29;20056;-68
2021/05/12 11:24:00;;;;;;;5.93;3.67;;;;;;;13.04;77.57;98377.03;4909870;29;20039;-68
2021/05/12 11:26:45;;;;;;;5.40;4.20;;;;;;;13.22;77.33;98374.75;4907593;29;20025;-68
2021/05/12 11:31:57;;;;;;;7.63;3.88;;;;;;;13.22;75.09;98366.94;4903809;29;20464;-68
2021/05/12 11:34:23;;;;;;;6.78;3.90;;;;;;;13.08;75.85;98365.63;4908175;29;21425;-70
2021/05/12 11:36:49;;;;;;;9.65;4.82;;;;;;;13.30;76.42;98367.53;4903871;29;20043;-68
2021/05/12 11:39:14;;;;;;;8.38;3.70;;;;;;;13.28;74.99;98369.31;4908828;29;20379;-70
2021/05/12 11:41:40;;;;;;;9.05;3.70;;;;;;;13.58;76.40;98362.16;4904007;29;20076;-68
2021/05/12 11:44:05;;;;;;;9.98;3.70;;;;;;;14.25;73.38;98358.72;4902711;29;20032;-68
2021/05/12 11:46:39;;;;;;;7.05;3.75;;;;;;;14.60;71.15;98355.59;4903566;29;20043;-68
2021/05/12 11:49:09;;;;;;;6.05;3.85;;;;;;;14.56;70.48;98364.47;4908090;29;20035;-68
2021/05/12 11:51:48;;;;;;;6.68;4.32;;;;;;;15.26;68.35;98354.56;4904818;29;20091;-68
2021/05/12 11:54:17;;;;;;;9.73;4.33;;;;;;;15.45;66.23;98358.06;4907429;29;20047;-68
2021/05/12 11:56:45;;;;;;;6.55;3.30;;;;;;;15.99;66.17;98348.66;4906391;29;20673;-69
2021/05/12 11:59:21;;;;;;;5.72;2.90;;;;;;;16.09;66.91;98346.44;4904845;29;20520;-68
2021/05/12 12:01:48;;;;;;;4.72;3.22;;;;;;;15.77;65.26;98353.19;4904299;29;20398;-68
2021/05/12 12:06:44;;;;;;;7.20;3.42;;;;;;;15.37;70.61;98357.53;4902487;29;20064;-68
2021/05/12 12:09:11;;;;;;;7.53;3.30;;;;;;;15.46;67.72;98341.47;4905932;29;20032;-68
2021/05/12 12:11:37;;;;;;;8.85;3.80;;;;;;;15.24;66.66;98345.97;4904398;29;20119;-68
2021/05/12 12:14:05;;;;;;;5.30;3.13;;;;;;;14.74;68.63;98351.56;4908209;29;20067;-68
2021/05/12 12:16:30;;;;;;;7.35;3.80;;;;;;;14.78;69.17;98353.13;4903246;29;20110;-68
2021/05/12 12:18:56;;;;;;;7.82;3.30;;;;;;;15.00;68.49;98348.72;4906854;29;20047;-68
2021/05/12 12:21:27;;;;;;;7.90;3.50;;;;;;;15.04;66.95;98355.50;4903195;29;21348;-68
2021/05/12 12:23:52;;;;;;;5.60;3.40;;;;;;;14.95;67.50;98344.59;4907612;29;20036;-68
2021/05/12 12:26:20;;;;;;;7.97;4.00;;;;;;;14.95;67.97;98353.28;4904314;29;20032;-68
2021/05/12 12:28:53;;;;;;;5.75;3.42;;;;;;;15.14;68.68;98346.34;4905866;29;20273;-68
2021/05/12 12:31:21;;;;;;;10.70;4.13;;;;;;;15.04;66.47;98349.44;4903692;29;20040;-68
2021/05/12 12:34:14;;;;;;;7.80;3.80;;;;;;;14.55;66.99;98352.34;4908070;29;20032;-68
2021/05/12 12:36:57;;;;;;;8.55;3.72;;;;;;;14.37;69.92;98348.69;4908429;29;20028;-68
2021/05/12 12:42:22;;;;;;;6.63;3.55;;;;;;;14.36;70.43;98352.19;4903297;29;20067;-68
2021/05/12 12:44:48;;;;;;;7.43;3.88;;;;;;;14.07;71.01;98350.75;4908458;29;20039;-70
2021/05/12 12:47:17;;;;;;;8.82;3.70;;;;;;;14.40;72.86;98353.75;4908234;29;20751;-70
2021/05/12 12:49:50;;;;;;;6.50;3.83;;;;;;;14.64;70.89;98354.53;4905153;29;20727;-71
2021/05/12 12:52:16;;;;;;;5.07;3.53;;;;;;;14.65;71.30;98361.47;4908026;29;20028;-70
2021/05/12 12:54:48;;;;;;;9.40;3.92;;;;;;;14.63;70.68;98355.47;4905045;29;20047;-71
2021/05/12 12:57:15;;;;;;;11.82;4.00;;;;;;;15.06;71.66;98358.03;4907984;29;21316;-71
2021/05/12 13:00:00;;;;;;;11.98;3.90;;;;;;;15.25;69.14;98358.94;4904760;29;20387;-71
2021/05/12 13:02:26;;;;;;;5.28;3.63;;;;;;;15.33;70.35;98356.00;4903998;29;20119;-71
2021/05/12 13:05:14;;;;;;;7.38;4.38;;;;;;;14.62;67.61;98364.19;4907124;29;20028;-71
2021/05/12 13:07:40;;;;;;;4.83;3.83;;;;;;;14.26;70.68;98356.06;4906958;29;20080;-73
2021/05/12 13:10:32;;;;;;;6.95;3.85;;;;;;;14.82;68.54;98360.75;4905184;29;20044;-71
2021/05/12 13:12:58;;;;;;;9.52;4.88;;;;;;;14.88;68.62;98364.88;4889426;29;20161;-71
2021/05/12 13:15:29;;;;;;;6.30;3.45;;;;;;;14.77;67.13;98362.72;4907249;29;20070;-71
2021/05/12 13:17:59;;;;;;;9.38;3.97;;;;;;;15.03;66.24;98358.16;4906246;29;20036;-71
2021/05/12 13:20:27;;;;;;;5.03;3.20;;;;;;;15.03;69.23;98353.78;4901939;29;20111;-71
2021/05/12 13:23:02;;;;;;;10.30;4.05;;;;;;;15.22;69.03;98351.22;4875163;29;20032;-71
2021/05/12 13:25:27;;;;;;;7.68;4.07;;;;;;;15.22;71.21;98363.44;4891047;29;20091;-71
2021/05/12 13:27:53;;;;;;;6.28;4.00;;;;;;;14.93;69.25;98357.69;4906159;29;20035;-70
2021/05/12 13:30:18;;;;;;;6.78;3.90;;;;;;;15.07;68.82;98360.56;4901274;29;20043;-72
2021/05/12 13:32:44;;;;;;;6.63;4.30;;;;;;;15.09;68.20;98350.94;4904212;29;20036;-72
2021/05/12 13:35:10;;;;;;;11.70;3.90;;;;;;;15.18;67.33;98352.28;4903884;29;20032;-72
2021/05/12 13:37:39;;;;;;;7.60;4.07;;;;;;;15.01;67.83;98355.63;4907204;29;20450;-72
2021/05/12 13:40:06;;;;;;;10.38;3.63;;;;;;;15.06;66.74;98352.81;4900529;29;20035;-72
2021/05/12 13:42:32;;;;;;;12.40;6.20;;;;;;;15.05;69.00;98351.97;4903749;29;20032;-72
2021/05/12 13:44:57;;;;;;;12.52;5.65;;;;;;;15.24;69.34;98345.97;4887306;29;20080;-72
2021/05/12 13:47:22;;;;;;;8.88;4.28;;;;;;;15.07;68.16;98344.06;4905442;29;20032;-73
2021/05/12 13:49:48;;;;;;;10.10;3.60;;;;;;;14.59;69.42;98342.59;4904300;29;20024;-71
2021/05/12 13:52:13;;;;;;;6.97;4.20;;;;;;;14.74;69.90;98341.97;4900526;29;20127;-71
2021/05/12 13:55:04;;;;;;;7.47;4.03;;;;;;;14.82;68.68;98339.06;4901499;29;20809;-71
2021/05/12 13:57:52;;;;;;;6.85;4.30;;;;;;;14.73;71.40;98329.84;4901881;29;20035;-71
2021/05/12 14:00:49;;;;;;;6.07;3.67;;;;;;;14.77;67.98;98331.41;4903482;29;20413;-71
2021/05/12 14:03:15;;;;;;;9.32;3.80;;;;;;;14.48;71.45;98334.41;4900446;29;20147;-71
2021/05/12 14:05:41;;;;;;;10.45;3.63;;;;;;;15.37;68.56;98321.84;4902018;29;20120;-71
2021/05/12 14:08:06;;;;;;;10.38;4.10;;;;;;;15.22;67.86;98329.50;4907059;29;20032;-72
2021/05/12 14:10:42;;;;;;;11.40;3.92;;;;;;;15.75;67.39;98321.88;4906029;29;20501;-71
2021/05/12 14:13:18;;;;;;;6.20;3.20;;;;;;;15.99;65.35;98319.91;4902822;29;20043;-71
2021/05/12 14:18:21;;;;;;;9.02;3.80;;;;;;;16.34;61.54;98309.50;4901837;29;20032;-71
2021/05/12 14:20:46;;;;;;;25.00;12.88;;;;;;;16.91;62.12;98307.56;4904260;29;20481;-71
2021/05/12 14:23:12;;;;;;;6.50;2.97;;;;;;;17.31;59.91;98308.97;4906539;29;20032;-71
2021/05/12 14:25:37;;;;;;;3.45;2.20;;;;;;;17.56;57.95;98302.41;4904746;29;20108;-72
2021/05/12 14:28:04;;;;;;;4.93;2.85;;;;;;;18.18;56.77;98309.47;4909001;29;20047;-72
2021/05/12 14:30:47;;;;;;;3.85;2.35;;;;;;;17.37;57.83;98307.78;4907870;29;20032;-72
2021/05/12 14:33:13;;;;;;;7.32;2.35;;;;;;;17.62;56.66;98297.69;4906517;29;20029;-72
2021/05/12 14:35:39;;;;;;;6.13;2.78;;;;;;;17.10;57.29;98300.44;4905152;29;20047;-72
2021/05/12 14:38:05;;;;;;;12.48;6.47;;;;;;;17.11;58.69;98301.28;4905950;29;20685;-71
2021/05/12 14:40:30;;;;;;;5.18;2.28;;;;;;;16.76;58.33;98305.72;4910337;29;20039;-72
2021/05/12 14:42:57;;;;;;;4.65;2.80;;;;;;;16.52;60.79;98313.00;4907079;29;20080;-71
2021/05/12 14:45:23;;;;;;;7.18;2.70;;;;;;;16.49;61.05;98308.78;4905935;29;20032;-72
2021/05/12 14:47:54;;;;;;;4.78;2.45;;;;;;;15.87;59.75;98310.03;4906952;29;20513;-69
2021/05/12 14:50:21;;;;;;;4.45;2.30;;;;;;;15.84;61.41;98318.00;4906354;29;20119;-69
2021/05/12 14:52:51;;;;;;;4.10;2.40;;;;;;;15.67;60.30;98314.44;4906993;29;20028;-69
2021/05/12 14:55:25;;;;;;;5.93;2.60;;;;;;;15.72;61.18;98310.75;4904803;29;20066;-69
2021/05/12 15:07:58;;;;;;;7.45;2.00;;;;;;;15.68;58.78;98302.22;4904338;29;20028;-72
2021/05/12 15:10:24;;;;;;;6.20;2.42;;;;;;;15.49;61.43;98304.78;4906710;29;20387;-72
2021/05/12 15:12:49;;;;;;;5.53;2.42;;;;;;;15.15;62.13;98301.06;4888564;29;20092;-72
2021/05/12 15:15:15;;;;;;;5.13;2.35;;;;;;;15.92;61.64;98300.22;4904239;29;20024;-72
2021/05/12 15:17:41;;;;;;;5.10;2.05;;;;;;;16.24;61.91;98303.03;4904244;29;20028;-72
2021/05/12 15:20:07;;;;;;;4.15;1.85;;;;;;;16.19;58.43;98306.72;4909119;29;20091;-72
2021/05/12 15:22:33;;;;;;;6.93;1.83;;;;;;;16.25;56.73;98295.16;4907431;29;20021;-71
2021/05/12 15:25:01;;;;;;;6.35;1.77;;;;;;;16.34;56.16;98299.06;4908141;29;20039;-72
2021/05/12 15:27:26;;;;;;;4.45;1.55;;;;;;;16.27;59.14;98292.44;4904887;29;20111;-72
2021/05/12 15:29:51;;;;;;;4.20;1.52;;;;;;;15.83;56.29;98293.66;4903000;29;20647;-71
2021/05/12 15:32:17;;;;;;;7.15;2.47;;;;;;;15.57;59.38;98286.13;4906762;29;20025;-72
2021/05/12 15:34:42;;;;;;;4.30;1.40;;;;;;;15.35;59.47;98288.91;4906073;29;20063;-71
2021/05/12 15:37:07;;;;;;;2.33;1.27;;;;;;;15.25;59.55;98290.22;4904682;29;20039;-72
2021/05/12 15:39:33;;;;;;;4.78;1.40;;;;;;;15.30;59.46;98291.72;4906069;29;20082;-72
2021/05/12 15:41:58;;;;;;;4.80;1.30;;;;;;;15.09;59.12;98296.13;4905129;29;20028;-71
2021/05/12 15:44:24;;;;;;;5.20;1.60;;;;;;;15.21;57.65;98296.50;4909684;29;20032;-71
2021/05/12 15:46:49;;;;;;;3.33;1.42;;;;;;;14.69;60.38;98303.97;4905541;29;20032;-71
2021/05/12 15:49:14;;;;;;;4.25;1.70;;;;;;;14.90;61.24;98300.47;4905075;29;20038;-72
2021/05/12 15:51:39;;;;;;;2.92;1.52;;;;;;;14.95;59.87;98298.50;4909147;29;20051;-72
2021/05/12 15:54:05;;;;;;;4.32;1.38;;;;;;;15.05;59.18;98299.78;4909369;29;20032;-71
2021/05/12 15:56:31;;;;;;;6.28;1.90;;;;;;;14.85;62.59;98294.59;4906415;29;20074;-73
2021/05/12 15:58:57;;;;;;;2.50;1.25;;;;;;;14.90;59.92;98295.25;4904780;29;20174;-73
2021/05/12 16:01:23;;;;;;;6.95;1.70;;;;;;;14.93;60.82;98295.09;4908793;29;20081;-72
2021/05/12 16:03:48;;;;;;;3.05;1.17;;;;;;;14.95;59.50;98301.09;4907521;29;20120;-73
2021/05/12 16:06:13;;;;;;;3.20;1.30;;;;;;;15.06;58.43;98296.25;4907110;29;20032;-74
2021/05/12 16:08:41;;;;;;;6.22;1.80;;;;;;;15.11;61.29;98293.44;4905282;29;20131;-72
2021/05/12 16:11:08;;;;;;;6.35;1.70;;;;;;;15.04;58.59;98298.09;4905597;29;20064;-73
2021/05/12 16:13:34;;;;;;;4.82;1.27;;;;;;;15.14;57.10;98291.56;4903372;29;20119;-73